sensor_id;sensor_type;location;lat;lon;timestamp;P1;durP1;ratioP1;P2;durP2;ratioP2
43509;SDS011;29105;57.764;40.952;2023-04-24T00:00:55;2.58;;;1.17;;
43509;SDS011;29105;57.764;40.952;2023-04-24T00:03:26;4.97;;;1.55;;
43509;SDS011;29105;57.764;40.952;2023-04-24T00:05:54;5.55;;;1.58;;
43509;SDS011;29105;57.764;40.952;2023-04-24T00:08:20;3.03;;;1.58;;
43509;SDS011;29105;57.764;40.952;2023-04-24T00:10:45;4.43;;;1.13;;
43509;SDS011;29105;57.764;40.952;2023-04-24T00:13:11;6.13;;;1.92;;
43509;SDS011;29105;57.764;40.952;2023-04-24T00:15:37;5.93;;;1.88;;
43509;SDS011;29105;57.764;40.952;2023-04-24T00:18:03;5.60;;;2.10;;
43509;SDS011;29105;57.764;40.952;2023-04-24T00:20:28;6.47;;;1.35;;
43509;SDS011;29105;57.764;40.952;2023-04-24T00:22:54;4.38;;;1.55;;
43509;SDS011;29105;57.764;40.952;2023-04-24T00:25:20;3.25;;;1.60;;
43509;SDS011;29105;57.764;40.952;2023-04-24T00:27:46;3.45;;;1.75;;
43509;SDS011;29105;57.764;40.952;2023-04-24T00:30:12;7.68;;;2.22;;
43509;SDS011;29105;57.764;40.952;2023-04-24T00:32:38;5.50;;;2.72;;
43509;SDS011;29105;57.764;40.952;2023-04-24T00:35:04;6.38;;;2.42;;
43509;SDS011;29105;57.764;40.952;2023-04-24T00:37:31;7.43;;;3.03;;
43509;SDS011;29105;57.764;40.952;2023-04-24T00:39:56;5.80;;;2.50;;
43509;SDS011;29105;57.764;40.952;2023-04-24T00:42:22;7.15;;;2.85;;
43509;SDS011;29105;57.764;40.952;2023-04-24T00:44:48;10.20;;;3.30;;
43509;SDS011;29105;57.764;40.952;2023-04-24T00:47:13;8.32;;;3.38;;
43509;SDS011;29105;57.764;40.952;2023-04-24T00:49:39;6.38;;;3.08;;
43509;SDS011;29105;57.764;40.952;2023-04-24T00:52:05;9.48;;;3.28;;
43509;SDS011;29105;57.764;40.952;2023-04-24T00:54:34;7.82;;;3.30;;
43509;SDS011;29105;57.764;40.952;2023-04-24T00:57:01;7.20;;;3.10;;
43509;SDS011;29105;57.764;40.952;2023-04-24T00:59:28;7.10;;;2.92;;
43509;SDS011;29105;57.764;40.952;2023-04-24T01:01:53;8.30;;;3.75;;
43509;SDS011;29105;57.764;40.952;2023-04-24T01:04:19;7.00;;;3.50;;
43509;SDS011;29105;57.764;40.952;2023-04-24T01:06:45;5.28;;;2.65;;
43509;SDS011;29105;57.764;40.952;2023-04-24T01:09:11;9.07;;;2.90;;
43509;SDS011;29105;57.764;40.952;2023-04-24T01:11:37;6.95;;;2.80;;
43509;SDS011;29105;57.764;40.952;2023-04-24T01:14:03;5.55;;;2.80;;
43509;SDS011;29105;57.764;40.952;2023-04-24T01:16:29;6.20;;;2.17;;
43509;SDS011;29105;57.764;40.952;2023-04-24T01:18:55;11.15;;;3.20;;
43509;SDS011;29105;57.764;40.952;2023-04-24T01:21:20;7.97;;;3.13;;
43509;SDS011;29105;57.764;40.952;2023-04-24T01:23:47;5.25;;;2.72;;
43509;SDS011;29105;57.764;40.952;2023-04-24T01:26:13;8.73;;;2.92;;
43509;SDS011;29105;57.764;40.952;2023-04-24T01:28:40;7.45;;;2.75;;
43509;SDS011;29105;57.764;40.952;2023-04-24T01:31:06;8.18;;;2.88;;
43509;SDS011;29105;57.764;40.952;2023-04-24T01:33:32;6.22;;;2.47;;
43509;SDS011;29105;57.764;40.952;2023-04-24T01:35:58;8.57;;;3.80;;
43509;SDS011;29105;57.764;40.952;2023-04-24T01:38:24;4.95;;;2.17;;
43509;SDS011;29105;57.764;40.952;2023-04-24T01:40:50;7.45;;;3.00;;
43509;SDS011;29105;57.764;40.952;2023-04-24T01:43:16;5.45;;;2.33;;
43509;SDS011;29105;57.764;40.952;2023-04-24T01:45:42;9.27;;;2.60;;
43509;SDS011;29105;57.764;40.952;2023-04-24T01:48:07;6.07;;;2.47;;
43509;SDS011;29105;57.764;40.952;2023-04-24T01:50:33;5.25;;;2.25;;
43509;SDS011;29105;57.764;40.952;2023-04-24T01:52:59;3.78;;;2.40;;
43509;SDS011;29105;57.764;40.952;2023-04-24T01:55:25;6.25;;;2.25;;
43509;SDS011;29105;57.764;40.952;2023-04-24T01:57:52;7.18;;;2.90;;
43509;SDS011;29105;57.764;40.952;2023-04-24T02:00:17;8.23;;;2.50;;
43509;SDS011;29105;57.764;40.952;2023-04-24T02:02:43;6.22;;;2.67;;
43509;SDS011;29105;57.764;40.952;2023-04-24T02:05:09;5.35;;;2.63;;
43509;SDS011;29105;57.764;40.952;2023-04-24T02:07:36;3.90;;;2.30;;
43509;SDS011;29105;57.764;40.952;2023-04-24T02:10:03;6.47;;;2.58;;
43509;SDS011;29105;57.764;40.952;2023-04-24T02:12:31;4.22;;;2.40;;
43509;SDS011;29105;57.764;40.952;2023-04-24T02:14:59;6.63;;;2.15;;
43509;SDS011;29105;57.764;40.952;2023-04-24T02:17:25;4.65;;;2.05;;
43509;SDS011;29105;57.764;40.952;2023-04-24T02:19:51;10.50;;;2.88;;
43509;SDS011;29105;57.764;40.952;2023-04-24T02:22:17;7.47;;;2.17;;
43509;SDS011;29105;57.764;40.952;2023-04-24T02:24:43;6.28;;;1.88;;
43509;SDS011;29105;57.764;40.952;2023-04-24T02:27:08;5.15;;;2.30;;
43509;SDS011;29105;57.764;40.952;2023-04-24T02:29:34;7.20;;;2.90;;
43509;SDS011;29105;57.764;40.952;2023-04-24T02:32:00;7.38;;;2.50;;
43509;SDS011;29105;57.764;40.952;2023-04-24T02:34:26;6.80;;;2.42;;
43509;SDS011;29105;57.764;40.952;2023-04-24T02:36:51;5.15;;;1.98;;
43509;SDS011;29105;57.764;40.952;2023-04-24T02:39:19;4.90;;;2.67;;
43509;SDS011;29105;57.764;40.952;2023-04-24T02:41:45;4.53;;;2.38;;
43509;SDS011;29105;57.764;40.952;2023-04-24T02:44:10;3.05;;;1.83;;
43509;SDS011;29105;57.764;40.952;2023-04-24T02:46:36;4.35;;;2.38;;
43509;SDS011;29105;57.764;40.952;2023-04-24T02:49:02;10.18;;;1.88;;
43509;SDS011;29105;57.764;40.952;2023-04-24T02:51:28;3.95;;;2.10;;
43509;SDS011;29105;57.764;40.952;2023-04-24T02:53:54;3.28;;;1.88;;
43509;SDS011;29105;57.764;40.952;2023-04-24T02:56:19;8.70;;;1.98;;
43509;SDS011;29105;57.764;40.952;2023-04-24T02:58:45;4.20;;;2.03;;
43509;SDS011;29105;57.764;40.952;2023-04-24T03:01:11;5.70;;;2.10;;
43509;SDS011;29105;57.764;40.952;2023-04-24T03:03:37;7.60;;;2.42;;
43509;SDS011;29105;57.764;40.952;2023-04-24T03:06:03;4.35;;;2.40;;
43509;SDS011;29105;57.764;40.952;2023-04-24T03:08:31;7.85;;;1.92;;
43509;SDS011;29105;57.764;40.952;2023-04-24T03:10:57;4.18;;;1.88;;
43509;SDS011;29105;57.764;40.952;2023-04-24T03:13:23;4.13;;;2.05;;
43509;SDS011;29105;57.764;40.952;2023-04-24T03:15:48;7.43;;;2.50;;
43509;SDS011;29105;57.764;40.952;2023-04-24T03:18:14;4.88;;;2.03;;
43509;SDS011;29105;57.764;40.952;2023-04-24T03:20:40;5.55;;;2.22;;
43509;SDS011;29105;57.764;40.952;2023-04-24T03:23:05;4.53;;;2.10;;
43509;SDS011;29105;57.764;40.952;2023-04-24T03:25:31;5.35;;;1.90;;
43509;SDS011;29105;57.764;40.952;2023-04-24T03:27:56;6.72;;;2.10;;
43509;SDS011;29105;57.764;40.952;2023-04-24T03:30:22;5.38;;;2.10;;
43509;SDS011;29105;57.764;40.952;2023-04-24T03:32:48;5.95;;;2.00;;
43509;SDS011;29105;57.764;40.952;2023-04-24T03:35:13;6.05;;;1.95;;
43509;SDS011;29105;57.764;40.952;2023-04-24T03:37:39;3.65;;;1.90;;
43509;SDS011;29105;57.764;40.952;2023-04-24T03:40:05;5.40;;;1.92;;
43509;SDS011;29105;57.764;40.952;2023-04-24T03:42:32;5.03;;;1.88;;
43509;SDS011;29105;57.764;40.952;2023-04-24T03:44:58;4.30;;;2.40;;
43509;SDS011;29105;57.764;40.952;2023-04-24T03:47:23;4.07;;;1.95;;
43509;SDS011;29105;57.764;40.952;2023-04-24T03:49:49;7.88;;;2.47;;
43509;SDS011;29105;57.764;40.952;2023-04-24T03:52:15;8.80;;;2.50;;
43509;SDS011;29105;57.764;40.952;2023-04-24T03:54:40;4.95;;;2.47;;
43509;SDS011;29105;57.764;40.952;2023-04-24T03:57:06;3.97;;;1.90;;
43509;SDS011;29105;57.764;40.952;2023-04-24T03:59:32;9.20;;;1.90;;
43509;SDS011;29105;57.764;40.952;2023-04-24T04:01:57;9.63;;;3.00;;
43509;SDS011;29105;57.764;40.952;2023-04-24T04:04:23;10.63;;;2.80;;
43509;SDS011;29105;57.764;40.952;2023-04-24T04:06:48;10.13;;;2.67;;
43509;SDS011;29105;57.764;40.952;2023-04-24T04:09:14;7.07;;;2.33;;
43509;SDS011;29105;57.764;40.952;2023-04-24T04:11:40;5.43;;;2.42;;
43509;SDS011;29105;57.764;40.952;2023-04-24T04:14:06;8.95;;;2.22;;
43509;SDS011;29105;57.764;40.952;2023-04-24T04:16:31;8.32;;;2.30;;
43509;SDS011;29105;57.764;40.952;2023-04-24T04:18:57;6.15;;;2.63;;
43509;SDS011;29105;57.764;40.952;2023-04-24T04:21:23;8.18;;;2.58;;
43509;SDS011;29105;57.764;40.952;2023-04-24T04:23:49;6.93;;;2.15;;
43509;SDS011;29105;57.764;40.952;2023-04-24T04:26:14;9.18;;;2.83;;
43509;SDS011;29105;57.764;40.952;2023-04-24T04:28:40;6.32;;;2.17;;
43509;SDS011;29105;57.764;40.952;2023-04-24T04:31:06;8.00;;;2.40;;
43509;SDS011;29105;57.764;40.952;2023-04-24T04:33:33;9.82;;;2.50;;
43509;SDS011;29105;57.764;40.952;2023-04-24T04:35:59;7.47;;;2.13;;
43509;SDS011;29105;57.764;40.952;2023-04-24T04:38:25;5.18;;;2.28;;
43509;SDS011;29105;57.764;40.952;2023-04-24T04:40:55;7.53;;;2.22;;
43509;SDS011;29105;57.764;40.952;2023-04-24T04:43:22;7.03;;;2.35;;
43509;SDS011;29105;57.764;40.952;2023-04-24T04:45:49;8.32;;;2.95;;
43509;SDS011;29105;57.764;40.952;2023-04-24T04:48:16;8.90;;;2.35;;
43509;SDS011;29105;57.764;40.952;2023-04-24T04:50:43;16.60;;;3.13;;
43509;SDS011;29105;57.764;40.952;2023-04-24T04:53:09;9.43;;;2.65;;
43509;SDS011;29105;57.764;40.952;2023-04-24T04:55:35;10.18;;;2.60;;
43509;SDS011;29105;57.764;40.952;2023-04-24T04:58:01;6.28;;;2.35;;
43509;SDS011;29105;57.764;40.952;2023-04-24T05:00:28;9.88;;;2.40;;
43509;SDS011;29105;57.764;40.952;2023-04-24T05:02:59;5.18;;;2.20;;
43509;SDS011;29105;57.764;40.952;2023-04-24T05:05:24;7.85;;;2.60;;
43509;SDS011;29105;57.764;40.952;2023-04-24T05:07:50;12.77;;;3.25;;
43509;SDS011;29105;57.764;40.952;2023-04-24T05:10:15;7.45;;;2.80;;
43509;SDS011;29105;57.764;40.952;2023-04-24T05:12:41;9.77;;;2.55;;
43509;SDS011;29105;57.764;40.952;2023-04-24T05:15:07;7.38;;;2.40;;
43509;SDS011;29105;57.764;40.952;2023-04-24T05:17:33;5.95;;;2.38;;
43509;SDS011;29105;57.764;40.952;2023-04-24T05:19:58;8.43;;;2.97;;
43509;SDS011;29105;57.764;40.952;2023-04-24T05:22:24;6.15;;;2.80;;
43509;SDS011;29105;57.764;40.952;2023-04-24T05:24:50;9.75;;;3.17;;
43509;SDS011;29105;57.764;40.952;2023-04-24T05:27:15;11.65;;;2.47;;
43509;SDS011;29105;57.764;40.952;2023-04-24T05:29:41;12.80;;;2.50;;
43509;SDS011;29105;57.764;40.952;2023-04-24T05:32:07;12.40;;;2.40;;
43509;SDS011;29105;57.764;40.952;2023-04-24T05:34:32;6.93;;;1.90;;
43509;SDS011;29105;57.764;40.952;2023-04-24T05:36:58;10.35;;;2.22;;
43509;SDS011;29105;57.764;40.952;2023-04-24T05:39:24;7.47;;;2.25;;
43509;SDS011;29105;57.764;40.952;2023-04-24T05:41:52;6.68;;;1.67;;
43509;SDS011;29105;57.764;40.952;2023-04-24T05:44:18;8.63;;;1.55;;
43509;SDS011;29105;57.764;40.952;2023-04-24T05:46:43;7.18;;;1.50;;
43509;SDS011;29105;57.764;40.952;2023-04-24T05:49:09;6.75;;;1.63;;
43509;SDS011;29105;57.764;40.952;2023-04-24T05:51:35;6.32;;;1.85;;
43509;SDS011;29105;57.764;40.952;2023-04-24T05:54:01;5.50;;;1.52;;
43509;SDS011;29105;57.764;40.952;2023-04-24T05:56:28;7.63;;;1.63;;
43509;SDS011;29105;57.764;40.952;2023-04-24T05:58:54;9.80;;;2.03;;
43509;SDS011;29105;57.764;40.952;2023-04-24T06:01:20;6.80;;;2.25;;
43509;SDS011;29105;57.764;40.952;2023-04-24T06:03:46;8.82;;;2.30;;
43509;SDS011;29105;57.764;40.952;2023-04-24T06:06:12;4.78;;;1.30;;
43509;SDS011;29105;57.764;40.952;2023-04-24T06:08:38;2.60;;;1.30;;
43509;SDS011;29105;57.764;40.952;2023-04-24T06:11:03;3.75;;;1.83;;
43509;SDS011;29105;57.764;40.952;2023-04-24T06:13:29;7.57;;;1.60;;
43509;SDS011;29105;57.764;40.952;2023-04-24T06:15:54;4.50;;;1.83;;
43509;SDS011;29105;57.764;40.952;2023-04-24T06:18:20;8.13;;;1.55;;
43509;SDS011;29105;57.764;40.952;2023-04-24T06:20:46;3.55;;;1.15;;
43509;SDS011;29105;57.764;40.952;2023-04-24T06:23:12;4.95;;;2.08;;
43509;SDS011;29105;57.764;40.952;2023-04-24T06:25:38;5.45;;;1.70;;
43509;SDS011;29105;57.764;40.952;2023-04-24T06:28:04;5.72;;;1.30;;
43509;SDS011;29105;57.764;40.952;2023-04-24T06:30:30;8.80;;;1.95;;
43509;SDS011;29105;57.764;40.952;2023-04-24T06:32:55;6.95;;;1.73;;
43509;SDS011;29105;57.764;40.952;2023-04-24T06:35:21;5.20;;;1.50;;
43509;SDS011;29105;57.764;40.952;2023-04-24T06:37:47;10.27;;;1.77;;
43509;SDS011;29105;57.764;40.952;2023-04-24T06:40:12;9.07;;;1.85;;
43509;SDS011;29105;57.764;40.952;2023-04-24T06:42:38;14.60;;;2.38;;
43509;SDS011;29105;57.764;40.952;2023-04-24T06:45:04;6.07;;;1.42;;
43509;SDS011;29105;57.764;40.952;2023-04-24T06:47:33;7.80;;;1.52;;
43509;SDS011;29105;57.764;40.952;2023-04-24T06:49:58;12.23;;;1.75;;
43509;SDS011;29105;57.764;40.952;2023-04-24T06:52:24;5.43;;;1.25;;
43509;SDS011;29105;57.764;40.952;2023-04-24T06:54:50;6.03;;;1.48;;
43509;SDS011;29105;57.764;40.952;2023-04-24T06:57:15;2.88;;;1.23;;
43509;SDS011;29105;57.764;40.952;2023-04-24T06:59:42;6.68;;;1.50;;
43509;SDS011;29105;57.764;40.952;2023-04-24T07:02:08;4.32;;;1.58;;
43509;SDS011;29105;57.764;40.952;2023-04-24T07:04:33;32.08;;;2.38;;
43509;SDS011;29105;57.764;40.952;2023-04-24T07:06:59;2.10;;;0.70;;
43509;SDS011;29105;57.764;40.952;2023-04-24T07:09:25;6.45;;;1.35;;
43509;SDS011;29105;57.764;40.952;2023-04-24T07:11:51;2.20;;;1.20;;
43509;SDS011;29105;57.764;40.952;2023-04-24T07:14:18;4.75;;;1.30;;
43509;SDS011;29105;57.764;40.952;2023-04-24T07:16:43;14.18;;;2.03;;
43509;SDS011;29105;57.764;40.952;2023-04-24T07:19:10;4.55;;;2.25;;
43509;SDS011;29105;57.764;40.952;2023-04-24T07:21:37;10.90;;;2.15;;
43509;SDS011;29105;57.764;40.952;2023-04-24T07:24:03;9.23;;;1.33;;
43509;SDS011;29105;57.764;40.952;2023-04-24T07:26:29;10.80;;;2.08;;
43509;SDS011;29105;57.764;40.952;2023-04-24T07:28:55;4.55;;;1.67;;
43509;SDS011;29105;57.764;40.952;2023-04-24T07:31:21;6.28;;;1.63;;
43509;SDS011;29105;57.764;40.952;2023-04-24T07:33:47;7.13;;;1.50;;
43509;SDS011;29105;57.764;40.952;2023-04-24T07:36:12;5.20;;;1.23;;
43509;SDS011;29105;57.764;40.952;2023-04-24T07:38:42;6.47;;;1.55;;
43509;SDS011;29105;57.764;40.952;2023-04-24T07:41:08;5.40;;;1.20;;
43509;SDS011;29105;57.764;40.952;2023-04-24T07:43:34;14.90;;;1.38;;
43509;SDS011;29105;57.764;40.952;2023-04-24T07:46:00;9.82;;;2.08;;
43509;SDS011;29105;57.764;40.952;2023-04-24T07:48:26;6.05;;;2.38;;
43509;SDS011;29105;57.764;40.952;2023-04-24T07:50:52;21.98;;;3.85;;
43509;SDS011;29105;57.764;40.952;2023-04-24T07:53:18;5.57;;;1.90;;
43509;SDS011;29105;57.764;40.952;2023-04-24T07:55:44;6.88;;;2.38;;
43509;SDS011;29105;57.764;40.952;2023-04-24T07:58:09;13.48;;;4.60;;
43509;SDS011;29105;57.764;40.952;2023-04-24T08:00:35;6.18;;;2.80;;
43509;SDS011;29105;57.764;40.952;2023-04-24T08:03:01;6.32;;;3.40;;
43509;SDS011;29105;57.764;40.952;2023-04-24T08:05:27;8.60;;;3.85;;
43509;SDS011;29105;57.764;40.952;2023-04-24T08:07:53;7.55;;;2.92;;
43509;SDS011;29105;57.764;40.952;2023-04-24T08:10:23;8.40;;;2.05;;
43509;SDS011;29105;57.764;40.952;2023-04-24T08:12:48;8.02;;;2.53;;
43509;SDS011;29105;57.764;40.952;2023-04-24T08:15:14;18.17;;;3.40;;
43509;SDS011;29105;57.764;40.952;2023-04-24T08:17:40;12.70;;;3.05;;
43509;SDS011;29105;57.764;40.952;2023-04-24T08:20:06;42.92;;;4.78;;
43509;SDS011;29105;57.764;40.952;2023-04-24T08:22:39;15.65;;;3.20;;
43509;SDS011;29105;57.764;40.952;2023-04-24T08:25:08;12.90;;;2.67;;
43509;SDS011;29105;57.764;40.952;2023-04-24T08:27:35;7.22;;;3.40;;
43509;SDS011;29105;57.764;40.952;2023-04-24T08:30:02;5.85;;;3.30;;
43509;SDS011;29105;57.764;40.952;2023-04-24T08:32:32;2.95;;;1.63;;
43509;SDS011;29105;57.764;40.952;2023-04-24T08:34:58;8.05;;;3.17;;
43509;SDS011;29105;57.764;40.952;2023-04-24T08:37:25;7.32;;;3.50;;
43509;SDS011;29105;57.764;40.952;2023-04-24T08:39:51;14.57;;;4.43;;
43509;SDS011;29105;57.764;40.952;2023-04-24T08:42:17;15.35;;;5.15;;
43509;SDS011;29105;57.764;40.952;2023-04-24T08:44:44;15.32;;;6.40;;
43509;SDS011;29105;57.764;40.952;2023-04-24T08:47:11;14.40;;;7.80;;
43509;SDS011;29105;57.764;40.952;2023-04-24T08:49:37;10.63;;;6.28;;
43509;SDS011;29105;57.764;40.952;2023-04-24T08:52:03;11.30;;;5.97;;
43509;SDS011;29105;57.764;40.952;2023-04-24T08:54:30;16.10;;;7.22;;
43509;SDS011;29105;57.764;40.952;2023-04-24T08:57:00;17.73;;;9.73;;
43509;SDS011;29105;57.764;40.952;2023-04-24T08:59:27;17.27;;;8.48;;
43509;SDS011;29105;57.764;40.952;2023-04-24T09:01:53;14.35;;;7.03;;
43509;SDS011;29105;57.764;40.952;2023-04-24T09:04:20;27.13;;;12.82;;
43509;SDS011;29105;57.764;40.952;2023-04-24T09:06:51;20.10;;;12.15;;
43509;SDS011;29105;57.764;40.952;2023-04-24T09:09:17;24.48;;;12.88;;
43509;SDS011;29105;57.764;40.952;2023-04-24T09:11:44;17.45;;;8.05;;
43509;SDS011;29105;57.764;40.952;2023-04-24T09:14:10;24.90;;;8.48;;
43509;SDS011;29105;57.764;40.952;2023-04-24T09:16:36;16.42;;;6.68;;
43509;SDS011;29105;57.764;40.952;2023-04-24T09:19:02;10.90;;;6.15;;
43509;SDS011;29105;57.764;40.952;2023-04-24T09:21:31;13.93;;;8.68;;
43509;SDS011;29105;57.764;40.952;2023-04-24T09:23:59;11.48;;;6.05;;
43509;SDS011;29105;57.764;40.952;2023-04-24T09:26:31;18.92;;;5.13;;
43509;SDS011;29105;57.764;40.952;2023-04-24T09:28:57;12.18;;;5.65;;
43509;SDS011;29105;57.764;40.952;2023-04-24T09:31:24;10.27;;;5.72;;
43509;SDS011;29105;57.764;40.952;2023-04-24T09:33:56;11.27;;;6.15;;
43509;SDS011;29105;57.764;40.952;2023-04-24T09:36:30;10.65;;;4.07;;
43509;SDS011;29105;57.764;40.952;2023-04-24T09:39:02;8.00;;;5.00;;
43509;SDS011;29105;57.764;40.952;2023-04-24T09:41:33;6.97;;;3.53;;
43509;SDS011;29105;57.764;40.952;2023-04-24T09:44:15;7.93;;;3.38;;
43509;SDS011;29105;57.764;40.952;2023-04-24T09:46:51;7.03;;;3.22;;
43509;SDS011;29105;57.764;40.952;2023-04-24T09:49:21;9.60;;;4.07;;
43509;SDS011;29105;57.764;40.952;2023-04-24T09:54:14;8.38;;;3.10;;
43509;SDS011;29105;57.764;40.952;2023-04-24T09:56:45;9.02;;;3.10;;
43509;SDS011;29105;57.764;40.952;2023-04-24T09:59:14;7.45;;;3.35;;
43509;SDS011;29105;57.764;40.952;2023-04-24T10:01:41;7.55;;;3.63;;
43509;SDS011;29105;57.764;40.952;2023-04-24T10:04:17;4.95;;;2.75;;
43509;SDS011;29105;57.764;40.952;2023-04-24T10:06:46;12.77;;;4.45;;
43509;SDS011;29105;57.764;40.952;2023-04-24T10:09:14;6.30;;;3.88;;
43509;SDS011;29105;57.764;40.952;2023-04-24T10:11:41;7.57;;;4.05;;
43509;SDS011;29105;57.764;40.952;2023-04-24T10:14:09;7.78;;;4.07;;
43509;SDS011;29105;57.764;40.952;2023-04-24T10:16:39;11.20;;;3.20;;
43509;SDS011;29105;57.764;40.952;2023-04-24T10:19:06;10.02;;;4.05;;
43509;SDS011;29105;57.764;40.952;2023-04-24T10:21:32;8.35;;;4.25;;
43509;SDS011;29105;57.764;40.952;2023-04-24T10:23:58;6.47;;;4.35;;
43509;SDS011;29105;57.764;40.952;2023-04-24T10:26:25;8.02;;;4.32;;
43509;SDS011;29105;57.764;40.952;2023-04-24T10:28:52;9.55;;;3.63;;
43509;SDS011;29105;57.764;40.952;2023-04-24T10:31:18;25.60;;;3.60;;
43509;SDS011;29105;57.764;40.952;2023-04-24T10:33:44;19.95;;;4.68;;
43509;SDS011;29105;57.764;40.952;2023-04-24T10:36:10;7.95;;;4.20;;
43509;SDS011;29105;57.764;40.952;2023-04-24T10:38:38;7.38;;;3.80;;
43509;SDS011;29105;57.764;40.952;2023-04-24T10:41:12;7.10;;;4.80;;
43509;SDS011;29105;57.764;40.952;2023-04-24T10:43:45;7.68;;;3.38;;
43509;SDS011;29105;57.764;40.952;2023-04-24T10:46:16;7.60;;;5.00;;
43509;SDS011;29105;57.764;40.952;2023-04-24T10:48:51;7.10;;;4.28;;
43509;SDS011;29105;57.764;40.952;2023-04-24T10:51:21;8.88;;;4.30;;
43509;SDS011;29105;57.764;40.952;2023-04-24T10:53:47;11.18;;;3.60;;
43509;SDS011;29105;57.764;40.952;2023-04-24T10:56:16;8.23;;;4.78;;
43509;SDS011;29105;57.764;40.952;2023-04-24T10:58:43;9.80;;;3.38;;
43509;SDS011;29105;57.764;40.952;2023-04-24T11:01:31;11.15;;;4.60;;
43509;SDS011;29105;57.764;40.952;2023-04-24T11:04:01;11.82;;;4.68;;
43509;SDS011;29105;57.764;40.952;2023-04-24T11:06:35;8.77;;;4.80;;
43509;SDS011;29105;57.764;40.952;2023-04-24T11:09:02;11.32;;;4.03;;
43509;SDS011;29105;57.764;40.952;2023-04-24T11:11:31;7.15;;;4.03;;
43509;SDS011;29105;57.764;40.952;2023-04-24T11:16:28;5.65;;;3.70;;
43509;SDS011;29105;57.764;40.952;2023-04-24T11:19:03;7.53;;;3.40;;
43509;SDS011;29105;57.764;40.952;2023-04-24T11:26:54;10.38;;;5.07;;
43509;SDS011;29105;57.764;40.952;2023-04-24T11:29:22;11.30;;;4.80;;
43509;SDS011;29105;57.764;40.952;2023-04-24T11:31:48;8.95;;;5.00;;
43509;SDS011;29105;57.764;40.952;2023-04-24T11:34:16;12.88;;;6.43;;
43509;SDS011;29105;57.764;40.952;2023-04-24T11:36:43;8.13;;;5.55;;
43509;SDS011;29105;57.764;40.952;2023-04-24T11:39:10;10.95;;;4.63;;
43509;SDS011;29105;57.764;40.952;2023-04-24T11:41:37;5.72;;;3.63;;
43509;SDS011;29105;57.764;40.952;2023-04-24T11:44:03;7.35;;;4.18;;
43509;SDS011;29105;57.764;40.952;2023-04-24T11:46:31;8.20;;;4.55;;
43509;SDS011;29105;57.764;40.952;2023-04-24T11:48:58;11.15;;;4.47;;
43509;SDS011;29105;57.764;40.952;2023-04-24T11:51:25;8.90;;;4.32;;
43509;SDS011;29105;57.764;40.952;2023-04-24T11:53:55;6.00;;;2.63;;
43509;SDS011;29105;57.764;40.952;2023-04-24T11:56:22;5.30;;;2.90;;
43509;SDS011;29105;57.764;40.952;2023-04-24T11:58:48;6.18;;;2.40;;
43509;SDS011;29105;57.764;40.952;2023-04-24T12:01:14;5.43;;;3.25;;
43509;SDS011;29105;57.764;40.952;2023-04-24T12:03:40;8.70;;;4.03;;
43509;SDS011;29105;57.764;40.952;2023-04-24T12:06:09;7.35;;;3.72;;
43509;SDS011;29105;57.764;40.952;2023-04-24T12:08:36;10.68;;;3.97;;
43509;SDS011;29105;57.764;40.952;2023-04-24T12:11:03;6.63;;;3.30;;
43509;SDS011;29105;57.764;40.952;2023-04-24T12:13:32;7.20;;;4.43;;
43509;SDS011;29105;57.764;40.952;2023-04-24T12:15:59;9.43;;;3.60;;
43509;SDS011;29105;57.764;40.952;2023-04-24T12:18:25;5.35;;;2.83;;
43509;SDS011;29105;57.764;40.952;2023-04-24T12:20:51;4.15;;;2.85;;
43509;SDS011;29105;57.764;40.952;2023-04-24T12:23:32;6.50;;;4.57;;
43509;SDS011;29105;57.764;40.952;2023-04-24T12:25:59;5.78;;;3.05;;
43509;SDS011;29105;57.764;40.952;2023-04-24T12:28:34;5.43;;;2.55;;
43509;SDS011;29105;57.764;40.952;2023-04-24T12:31:01;6.00;;;2.53;;
43509;SDS011;29105;57.764;40.952;2023-04-24T12:33:27;5.82;;;3.05;;
43509;SDS011;29105;57.764;40.952;2023-04-24T12:35:53;7.65;;;2.88;;
43509;SDS011;29105;57.764;40.952;2023-04-24T12:38:22;4.13;;;2.35;;
43509;SDS011;29105;57.764;40.952;2023-04-24T12:40:58;5.18;;;2.33;;
43509;SDS011;29105;57.764;40.952;2023-04-24T12:43:27;8.77;;;2.67;;
43509;SDS011;29105;57.764;40.952;2023-04-24T12:45:52;7.80;;;2.65;;
43509;SDS011;29105;57.764;40.952;2023-04-24T12:48:18;6.00;;;2.63;;
43509;SDS011;29105;57.764;40.952;2023-04-24T12:50:45;6.22;;;2.88;;
43509;SDS011;29105;57.764;40.952;2023-04-24T12:53:10;8.63;;;2.95;;
43509;SDS011;29105;57.764;40.952;2023-04-24T12:55:36;4.78;;;3.55;;
43509;SDS011;29105;57.764;40.952;2023-04-24T12:58:02;9.45;;;3.72;;
43509;SDS011;29105;57.764;40.952;2023-04-24T13:00:28;6.18;;;3.55;;
43509;SDS011;29105;57.764;40.952;2023-04-24T13:02:54;8.55;;;5.07;;
43509;SDS011;29105;57.764;40.952;2023-04-24T13:05:20;5.25;;;2.75;;
43509;SDS011;29105;57.764;40.952;2023-04-24T13:07:46;3.25;;;2.53;;
43509;SDS011;29105;57.764;40.952;2023-04-24T13:10:11;9.18;;;3.10;;
43509;SDS011;29105;57.764;40.952;2023-04-24T13:12:38;9.38;;;4.72;;
43509;SDS011;29105;57.764;40.952;2023-04-24T13:15:05;6.95;;;3.63;;
43509;SDS011;29105;57.764;40.952;2023-04-24T13:17:34;5.60;;;3.25;;
43509;SDS011;29105;57.764;40.952;2023-04-24T13:20:00;4.10;;;2.67;;
43509;SDS011;29105;57.764;40.952;2023-04-24T13:22:25;6.88;;;3.05;;
43509;SDS011;29105;57.764;40.952;2023-04-24T13:24:52;16.17;;;5.53;;
43509;SDS011;29105;57.764;40.952;2023-04-24T13:27:18;17.90;;;4.03;;
43509;SDS011;29105;57.764;40.952;2023-04-24T13:29:45;9.65;;;3.40;;
43509;SDS011;29105;57.764;40.952;2023-04-24T13:32:11;18.58;;;3.45;;
43509;SDS011;29105;57.764;40.952;2023-04-24T13:34:36;12.77;;;4.25;;
43509;SDS011;29105;57.764;40.952;2023-04-24T13:37:03;9.23;;;3.33;;
43509;SDS011;29105;57.764;40.952;2023-04-24T13:39:29;6.00;;;4.43;;
43509;SDS011;29105;57.764;40.952;2023-04-24T13:41:55;8.15;;;4.22;;
43509;SDS011;29105;57.764;40.952;2023-04-24T13:44:21;5.53;;;3.33;;
43509;SDS011;29105;57.764;40.952;2023-04-24T13:46:48;5.18;;;3.13;;
43509;SDS011;29105;57.764;40.952;2023-04-24T13:49:15;10.93;;;4.05;;
43509;SDS011;29105;57.764;40.952;2023-04-24T13:51:41;7.25;;;4.10;;
43509;SDS011;29105;57.764;40.952;2023-04-24T13:54:07;7.30;;;4.40;;
43509;SDS011;29105;57.764;40.952;2023-04-24T13:56:33;9.20;;;4.38;;
43509;SDS011;29105;57.764;40.952;2023-04-24T13:58:58;9.90;;;5.78;;
43509;SDS011;29105;57.764;40.952;2023-04-24T14:01:24;13.95;;;5.45;;
43509;SDS011;29105;57.764;40.952;2023-04-24T14:03:51;7.72;;;4.03;;
43509;SDS011;29105;57.764;40.952;2023-04-24T14:06:17;10.65;;;3.75;;
43509;SDS011;29105;57.764;40.952;2023-04-24T14:08:43;10.52;;;4.78;;
43509;SDS011;29105;57.764;40.952;2023-04-24T14:11:09;9.43;;;4.13;;
43509;SDS011;29105;57.764;40.952;2023-04-24T14:13:36;13.55;;;5.15;;
43509;SDS011;29105;57.764;40.952;2023-04-24T14:16:03;10.63;;;3.50;;
43509;SDS011;29105;57.764;40.952;2023-04-24T14:18:29;12.13;;;6.47;;
43509;SDS011;29105;57.764;40.952;2023-04-24T14:20:54;10.68;;;4.07;;
43509;SDS011;29105;57.764;40.952;2023-04-24T14:23:20;7.97;;;3.90;;
43509;SDS011;29105;57.764;40.952;2023-04-24T14:25:46;9.63;;;4.55;;
43509;SDS011;29105;57.764;40.952;2023-04-24T14:28:13;9.13;;;5.25;;
43509;SDS011;29105;57.764;40.952;2023-04-24T14:30:39;10.93;;;4.60;;
43509;SDS011;29105;57.764;40.952;2023-04-24T14:33:05;8.82;;;5.10;;
43509;SDS011;29105;57.764;40.952;2023-04-24T14:35:31;10.57;;;4.95;;
43509;SDS011;29105;57.764;40.952;2023-04-24T14:37:59;10.13;;;5.47;;